createdAt,value
2017-09-29T00:00:15.307Z,23.1
2017-09-29T00:00:55.767Z,23.1
2017-09-29T00:01:36.224Z,23.1
2017-09-29T00:02:16.665Z,23.07
2017-09-29T00:02:57.120Z,23.08
2017-09-29T00:03:37.570Z,23.08
2017-09-29T00:04:18.029Z,23.11
2017-09-29T00:04:58.480Z,23.11
2017-09-29T00:05:38.927Z,23.11
2017-09-29T00:06:19.382Z,23.07
2017-09-29T00:06:59.841Z,23.07
2017-09-29T00:07:40.298Z,23.1
2017-09-29T00:08:20.749Z,23.08
2017-09-29T00:09:01.218Z,23.08
2017-09-29T00:09:41.675Z,23.07
2017-09-29T00:10:22.123Z,23.07
2017-09-29T00:11:02.582Z,23.1
2017-09-29T00:11:43.039Z,23.1
2017-09-29T00:12:23.497Z,23.1
2017-09-29T00:13:03.952Z,23.1
2017-09-29T00:13:44.412Z,23.1
2017-09-29T00:14:24.868Z,23.07
2017-09-29T00:15:05.319Z,23.13
2017-09-29T00:15:45.775Z,23.1
2017-09-29T00:16:26.229Z,23.08
2017-09-29T00:17:06.688Z,23.11
2017-09-29T00:17:47.143Z,23.07
2017-09-29T00:18:27.604Z,23.06
2017-09-29T00:19:08.064Z,23.02
2017-09-29T00:19:48.517Z,23.08
2017-09-29T00:20:28.969Z,23.01
2017-09-29T00:21:09.424Z,23.06
2017-09-29T00:21:49.883Z,23.06
2017-09-29T00:22:30.338Z,23.02
2017-09-29T00:23:10.801Z,23.06
2017-09-29T00:23:51.259Z,23.06
2017-09-29T00:24:31.724Z,22.99
2017-09-29T00:25:12.182Z,23.1
2017-09-29T00:25:52.644Z,23.04
2017-09-29T00:26:33.096Z,23.06
2017-09-29T00:27:13.553Z,23.06
2017-09-29T00:27:54.006Z,23.04
2017-09-29T00:28:34.462Z,23.04
2017-09-29T00:29:14.915Z,23.02
2017-09-29T00:29:55.371Z,22.95
2017-09-29T00:30:35.825Z,22.98
2017-09-29T00:31:16.279Z,23.02
2017-09-29T00:31:56.731Z,23.04
2017-09-29T00:32:37.206Z,23.08
2017-09-29T00:33:17.667Z,22.98
2017-09-29T00:33:58.118Z,22.99
2017-09-29T00:34:38.566Z,23.02
2017-09-29T00:35:19.029Z,22.98
2017-09-29T00:35:59.478Z,22.98
2017-09-29T00:36:39.930Z,22.99
2017-09-29T00:37:20.383Z,23.02
2017-09-29T00:38:00.850Z,22.99
2017-09-29T00:38:41.305Z,23.06
2017-09-29T00:39:21.756Z,22.98
2017-09-29T00:40:02.212Z,23.07
2017-09-29T00:41:54.802Z,22.98
2017-09-29T00:42:35.260Z,23.01
2017-09-29T00:43:15.721Z,22.98
2017-09-29T00:43:56.178Z,23.07
2017-09-29T00:44:36.635Z,23.07
2017-09-29T00:45:17.084Z,23.02
2017-09-29T00:45:57.533Z,23.04
2017-09-29T00:46:37.992Z,22.98
2017-09-29T00:47:18.448Z,22.99
2017-09-29T00:47:58.908Z,23.02
2017-09-29T00:48:39.357Z,23.02
2017-09-29T00:49:19.811Z,23.02
2017-09-29T00:50:00.264Z,22.99
2017-09-29T00:50:40.712Z,23.02
2017-09-29T00:51:21.181Z,22.98
2017-09-29T00:52:01.631Z,23.02
2017-09-29T00:52:42.084Z,22.99
2017-09-29T00:53:22.537Z,23.01
2017-09-29T00:54:02.981Z,22.99
2017-09-29T00:54:43.439Z,22.96
2017-09-29T00:55:23.897Z,22.95
2017-09-29T00:56:04.351Z,22.99
2017-09-29T00:56:44.807Z,23.01
2017-09-29T00:57:25.252Z,22.96
2017-09-29T00:58:05.712Z,22.95
2017-09-29T00:58:46.169Z,22.95
2017-09-29T00:59:26.619Z,23.01
2017-09-29T01:00:07.072Z,22.95
2017-09-29T01:00:47.525Z,22.99
2017-09-29T01:01:27.978Z,22.95
2017-09-29T01:02:08.429Z,23.01
2017-09-29T01:02:48.885Z,23.01
2017-09-29T01:03:29.347Z,22.98
2017-09-29T01:04:09.802Z,23.06
2017-09-29T01:04:50.259Z,22.99
2017-09-29T01:05:30.724Z,22.96
2017-09-29T01:06:11.177Z,23.04
2017-09-29T01:06:51.633Z,23.04
2017-09-29T01:07:32.093Z,22.93
2017-09-29T01:08:12.542Z,22.98
2017-09-29T01:08:52.998Z,22.95
2017-09-29T01:09:33.449Z,23.04
2017-09-29T01:10:13.892Z,23.04
2017-09-29T01:10:54.358Z,23.01
2017-09-29T01:11:34.812Z,22.95
2017-09-29T01:12:15.276Z,22.95
2017-09-29T01:12:55.728Z,22.96
2017-09-29T01:13:36.172Z,22.95
2017-09-29T01:14:16.623Z,23.02
2017-09-29T01:14:57.076Z,22.99
2017-09-29T01:15:37.526Z,22.96
2017-09-29T01:16:17.983Z,22.96
2017-09-29T01:16:58.435Z,22.99
2017-09-29T01:17:38.881Z,23.01
2017-09-29T01:18:19.341Z,22.93
2017-09-29T01:18:59.796Z,22.95
2017-09-29T01:19:40.250Z,22.98
2017-09-29T01:20:20.709Z,22.99
2017-09-29T01:21:01.166Z,22.96
2017-09-29T01:21:41.620Z,22.98
2017-09-29T01:22:22.076Z,22.92
2017-09-29T01:23:02.525Z,23.01
2017-09-29T01:23:42.980Z,22.95
2017-09-29T01:24:23.425Z,22.95
2017-09-29T01:25:03.889Z,22.96
2017-09-29T01:25:44.344Z,22.98
2017-09-29T01:26:24.793Z,22.96
2017-09-29T01:27:05.250Z,22.93
2017-09-29T01:27:45.702Z,22.95
2017-09-29T01:28:26.162Z,22.93
2017-09-29T01:29:06.615Z,22.98
2017-09-29T01:29:47.065Z,22.95
2017-09-29T01:30:27.513Z,22.93
2017-09-29T01:31:07.964Z,22.96
2017-09-29T01:31:48.426Z,22.95
2017-09-29T01:32:28.883Z,22.95
2017-09-29T01:33:09.331Z,22.93
2017-09-29T01:33:49.783Z,22.93
2017-09-29T01:34:30.230Z,22.92
2017-09-29T01:35:10.683Z,22.92
2017-09-29T01:35:51.140Z,22.98
2017-09-29T01:36:31.585Z,22.95
2017-09-29T01:37:12.038Z,22.89
2017-09-29T01:37:52.494Z,22.93
2017-09-29T01:38:32.952Z,22.93
2017-09-29T01:39:13.405Z,22.95
2017-09-29T01:39:53.863Z,22.88
2017-09-29T01:40:34.313Z,22.93
2017-09-29T01:41:14.759Z,22.93
2017-09-29T01:41:55.230Z,22.88
2017-09-29T01:42:35.688Z,22.96
2017-09-29T01:43:16.137Z,22.93
2017-09-29T01:43:56.594Z,22.89
2017-09-29T01:44:37.054Z,22.96
2017-09-29T01:45:17.505Z,22.86
2017-09-29T01:45:57.963Z,22.88
2017-09-29T01:46:38.415Z,22.91
2017-09-29T01:47:18.874Z,22.92
2017-09-29T01:47:59.323Z,22.92
2017-09-29T01:48:39.782Z,22.95
2017-09-29T01:49:20.231Z,22.92
2017-09-29T01:50:00.687Z,22.92
2017-09-29T01:50:41.133Z,22.89
2017-09-29T01:51:21.588Z,22.92
2017-09-29T01:52:02.047Z,22.89
2017-09-29T01:52:42.500Z,22.84
2017-09-29T01:53:22.943Z,22.86
2017-09-29T01:54:03.390Z,22.86
2017-09-29T01:54:43.854Z,22.89
2017-09-29T01:55:24.308Z,22.96
2017-09-29T01:56:04.769Z,22.95
2017-09-29T01:56:45.223Z,22.92
2017-09-29T01:57:25.678Z,22.84
2017-09-29T01:58:06.140Z,22.91
2017-09-29T01:58:46.587Z,22.92
2017-09-29T01:59:27.065Z,22.81
2017-09-29T02:00:07.500Z,22.81
2017-09-29T02:00:47.950Z,22.84
2017-09-29T02:01:28.411Z,22.78
2017-09-29T02:02:08.865Z,22.78
2017-09-29T02:02:49.317Z,22.81
2017-09-29T02:03:29.770Z,22.86
2017-09-29T02:04:10.230Z,22.81
2017-09-29T02:04:50.686Z,22.84
2017-09-29T02:05:31.136Z,22.84
2017-09-29T02:06:11.589Z,22.88
2017-09-29T02:06:52.049Z,22.84
2017-09-29T02:07:32.503Z,22.83
2017-09-29T02:08:12.954Z,22.81
2017-09-29T02:08:53.408Z,22.86
2017-09-29T02:09:33.852Z,22.84
2017-09-29T02:10:14.312Z,22.78
2017-09-29T02:10:54.770Z,22.83
2017-09-29T02:11:35.224Z,22.81
2017-09-29T02:12:15.680Z,22.86
2017-09-29T02:12:56.130Z,22.78
2017-09-29T02:13:36.583Z,22.78
2017-09-29T02:14:17.038Z,22.81
2017-09-29T02:14:57.488Z,22.84
2017-09-29T02:16:51.106Z,22.88
2017-09-29T02:17:31.556Z,22.8
2017-09-29T02:18:12.010Z,22.83
2017-09-29T02:18:52.473Z,22.8
2017-09-29T02:19:32.923Z,22.83
2017-09-29T02:20:13.385Z,22.88
2017-09-29T02:20:53.841Z,22.8
2017-09-29T02:21:34.296Z,22.89
2017-09-29T02:22:14.760Z,22.83
2017-09-29T02:22:55.213Z,22.81
2017-09-29T02:23:35.658Z,22.84
2017-09-29T02:24:16.124Z,22.81
2017-09-29T02:24:56.571Z,22.91
2017-09-29T02:25:37.021Z,22.8
2017-09-29T02:26:17.476Z,22.8
2017-09-29T02:26:57.928Z,22.83
2017-09-29T02:27:38.388Z,22.84
2017-09-29T02:28:18.847Z,22.81
2017-09-29T02:28:59.301Z,22.83
2017-09-29T02:29:39.758Z,22.84
2017-09-29T02:30:20.214Z,22.81
2017-09-29T02:31:00.677Z,22.78
2017-09-29T02:31:41.127Z,22.8
2017-09-29T02:32:21.580Z,22.88
2017-09-29T02:33:02.034Z,22.89
2017-09-29T02:33:42.487Z,22.81
2017-09-29T02:34:22.939Z,22.84
2017-09-29T02:35:03.384Z,22.84
2017-09-29T02:35:43.844Z,22.86
2017-09-29T02:36:24.299Z,22.83
2017-09-29T02:37:04.761Z,22.77
2017-09-29T02:37:45.228Z,22.84
2017-09-29T02:38:25.684Z,22.84
2017-09-29T02:39:06.145Z,22.84
2017-09-29T02:39:46.600Z,22.84
2017-09-29T02:40:27.054Z,22.83
2017-09-29T02:41:07.522Z,22.81
2017-09-29T02:41:48.010Z,22.84
2017-09-29T02:42:28.472Z,22.84
2017-09-29T02:43:08.933Z,22.8
2017-09-29T02:43:49.387Z,22.83
2017-09-29T02:44:29.836Z,22.8
2017-09-29T02:45:10.313Z,22.83
2017-09-29T02:45:50.767Z,22.78
2017-09-29T02:46:31.226Z,22.83
2017-09-29T02:47:11.669Z,22.74
2017-09-29T02:47:52.139Z,22.83
2017-09-29T02:48:32.582Z,22.78
2017-09-29T02:49:13.031Z,22.8
2017-09-29T02:49:53.489Z,22.86
2017-09-29T02:50:33.940Z,22.88
2017-09-29T02:51:14.392Z,22.83
2017-09-29T02:51:54.854Z,22.83
2017-09-29T02:52:35.326Z,22.83
2017-09-29T02:53:15.778Z,22.8
2017-09-29T02:53:56.252Z,22.8
2017-09-29T02:54:36.704Z,22.8
2017-09-29T02:55:17.157Z,22.83
2017-09-29T02:55:57.608Z,22.8
2017-09-29T02:56:38.059Z,22.81
2017-09-29T02:57:18.527Z,22.83
2017-09-29T02:57:58.975Z,22.83
2017-09-29T02:58:39.431Z,22.8
2017-09-29T02:59:19.889Z,22.81
2017-09-29T03:00:00.349Z,22.81
2017-09-29T03:00:40.805Z,22.76
2017-09-29T03:01:21.255Z,22.83
2017-09-29T03:02:01.712Z,22.8
2017-09-29T03:02:42.166Z,22.76
2017-09-29T03:03:22.619Z,22.77
2017-09-29T03:04:03.079Z,22.8
2017-09-29T03:04:43.520Z,22.77
2017-09-29T03:05:23.974Z,22.86
2017-09-29T03:06:04.425Z,22.77
2017-09-29T03:06:44.882Z,22.83
2017-09-29T03:07:25.330Z,22.77
2017-09-29T03:08:05.784Z,22.84
2017-09-29T03:08:46.237Z,22.77
2017-09-29T03:09:26.701Z,22.73
2017-09-29T03:10:07.153Z,22.67
2017-09-29T03:10:47.605Z,22.84
2017-09-29T03:11:28.061Z,22.86
2017-09-29T03:12:08.511Z,22.74
2017-09-29T03:12:48.979Z,22.77
2017-09-29T03:13:29.437Z,22.83
2017-09-29T03:14:09.890Z,22.74
2017-09-29T03:14:50.383Z,22.77
2017-09-29T03:15:30.804Z,22.78
2017-09-29T03:16:11.259Z,22.78
2017-09-29T03:16:51.716Z,22.76
2017-09-29T03:17:32.166Z,22.83
2017-09-29T03:18:12.737Z,22.8
2017-09-29T03:18:53.132Z,22.71
2017-09-29T03:19:33.603Z,22.7
2017-09-29T03:20:14.049Z,22.81
2017-09-29T03:20:54.502Z,22.83
2017-09-29T03:21:34.948Z,22.74
2017-09-29T03:22:15.404Z,22.76
2017-09-29T03:22:55.855Z,22.78
2017-09-29T03:23:36.309Z,22.8
2017-09-29T03:24:16.767Z,22.73
2017-09-29T03:24:57.225Z,22.7
2017-09-29T03:25:37.679Z,22.74
2017-09-29T03:26:18.125Z,22.83
2017-09-29T03:26:58.580Z,22.81
2017-09-29T03:27:39.027Z,22.76
2017-09-29T03:28:19.488Z,22.71
2017-09-29T03:28:59.944Z,22.73
2017-09-29T03:29:40.409Z,22.8
2017-09-29T03:30:20.863Z,22.8
2017-09-29T03:31:01.332Z,22.77
2017-09-29T03:31:41.780Z,22.76
2017-09-29T03:32:22.228Z,22.81
2017-09-29T03:33:02.681Z,22.77
2017-09-29T03:33:43.142Z,22.8
2017-09-29T03:34:23.591Z,22.8
2017-09-29T03:35:04.046Z,22.81
2017-09-29T03:35:44.505Z,22.73
2017-09-29T03:36:25.005Z,22.78
2017-09-29T03:37:05.428Z,22.83
2017-09-29T03:37:45.883Z,22.83
2017-09-29T03:38:26.349Z,22.83
2017-09-29T03:39:06.780Z,22.81
2017-09-29T03:39:47.236Z,22.81
2017-09-29T03:40:27.672Z,22.84
2017-09-29T03:41:08.125Z,22.76
2017-09-29T03:41:48.572Z,22.83
2017-09-29T03:42:29.032Z,22.84
2017-09-29T03:43:09.486Z,22.84
2017-09-29T03:43:49.942Z,22.84
2017-09-29T03:44:30.401Z,22.91
2017-09-29T03:45:10.861Z,22.89
2017-09-29T03:45:51.309Z,22.86
2017-09-29T03:46:31.764Z,22.86
2017-09-29T03:47:12.239Z,22.86
2017-09-29T03:47:52.697Z,22.98
2017-09-29T03:48:33.158Z,22.88
2017-09-29T03:49:13.620Z,22.91
2017-09-29T03:49:54.069Z,22.96
2017-09-29T03:50:34.522Z,22.88
2017-09-29T03:51:14.978Z,22.91
2017-09-29T03:51:55.433Z,22.96
2017-09-29T03:52:35.888Z,23.01
2017-09-29T03:53:16.340Z,22.93
2017-09-29T03:53:56.804Z,23.01
2017-09-29T03:54:37.262Z,22.98
2017-09-29T03:55:17.710Z,22.99
2017-09-29T03:55:58.180Z,22.99
2017-09-29T03:56:38.641Z,22.96
2017-09-29T03:57:19.103Z,22.99
2017-09-29T03:57:59.555Z,22.98
2017-09-29T03:58:40.036Z,23.04
2017-09-29T03:59:20.464Z,22.99
2017-09-29T04:00:00.921Z,23.04
2017-09-29T04:00:41.370Z,22.99
2017-09-29T04:01:21.828Z,23.06
2017-09-29T04:02:02.278Z,23.01
2017-09-29T04:02:42.786Z,23.01
2017-09-29T04:03:23.238Z,22.99
2017-09-29T04:04:03.711Z,23.04
2017-09-29T04:04:44.151Z,23.02
2017-09-29T04:05:24.601Z,22.98
2017-09-29T04:06:05.062Z,23.02
2017-09-29T04:06:45.519Z,23.01
2017-09-29T04:07:25.963Z,23.01
2017-09-29T04:08:06.419Z,23.1
2017-09-29T04:08:46.880Z,23.04
2017-09-29T04:09:27.330Z,23.11
2017-09-29T04:10:07.772Z,23.14
2017-09-29T04:10:48.242Z,23.18
2017-09-29T04:11:28.725Z,23.14
2017-09-29T04:12:09.148Z,23.16
2017-09-29T04:12:49.612Z,23.14
2017-09-29T04:13:30.070Z,23.2
2017-09-29T04:14:10.526Z,23.1
2017-09-29T04:14:50.973Z,23.13
2017-09-29T04:15:31.432Z,23.11
2017-09-29T04:16:11.901Z,23.2
2017-09-29T04:16:52.390Z,23.23
2017-09-29T04:17:32.901Z,23.23
2017-09-29T04:18:13.362Z,23.23
2017-09-29T04:18:53.814Z,23.32
2017-09-29T04:19:34.273Z,23.29
2017-09-29T04:20:14.751Z,23.33
2017-09-29T04:20:55.224Z,23.33
2017-09-29T04:21:35.685Z,23.34
2017-09-29T04:22:16.127Z,23.28
2017-09-29T04:22:56.597Z,23.34
2017-09-29T04:23:37.056Z,23.32
2017-09-29T04:24:17.495Z,23.32
2017-09-29T04:24:57.952Z,23.32
2017-09-29T04:25:38.411Z,23.33
2017-09-29T04:26:18.864Z,23.28
2017-09-29T04:26:59.315Z,23.42
2017-09-29T04:27:39.767Z,23.36
2017-09-29T04:28:20.231Z,23.29
2017-09-29T04:29:00.665Z,23.32
2017-09-29T04:29:41.123Z,23.26
2017-09-29T04:30:21.569Z,23.23
2017-09-29T04:31:02.020Z,23.33
2017-09-29T04:31:42.471Z,23.34
2017-09-29T04:32:22.918Z,23.44
2017-09-29T04:33:03.368Z,23.36
2017-09-29T04:33:43.823Z,23.39
2017-09-29T04:34:24.278Z,23.33
2017-09-29T04:35:04.732Z,23.26
2017-09-29T04:35:45.187Z,23.47
2017-09-29T04:36:25.636Z,23.32
2017-09-29T04:37:06.097Z,23.33
2017-09-29T04:37:46.554Z,23.37
2017-09-29T04:38:27.008Z,23.37
2017-09-29T04:39:07.463Z,23.47
2017-09-29T04:39:47.901Z,23.47
2017-09-29T04:40:28.363Z,23.47
2017-09-29T04:41:08.821Z,23.44
2017-09-29T04:41:49.271Z,23.44
2017-09-29T04:42:29.723Z,23.48
2017-09-29T04:43:10.182Z,23.29
2017-09-29T04:43:50.641Z,23.39
2017-09-29T04:44:31.090Z,23.39
2017-09-29T04:45:11.536Z,23.51
2017-09-29T04:45:52.002Z,23.37
2017-09-29T04:46:32.443Z,23.48
2017-09-29T04:47:12.919Z,23.44
2017-09-29T04:47:53.377Z,23.36
2017-09-29T04:48:33.836Z,23.42
2017-09-29T04:49:14.284Z,23.33
2017-09-29T04:49:54.750Z,23.4
2017-09-29T04:50:35.206Z,23.42
2017-09-29T04:51:15.661Z,23.48
2017-09-29T04:51:56.122Z,23.37
2017-09-29T04:52:36.566Z,23.33
2017-09-29T04:53:17.031Z,23.34
2017-09-29T04:53:57.480Z,23.32
2017-09-29T04:54:37.934Z,23.33
2017-09-29T04:55:18.388Z,23.28
2017-09-29T04:55:58.861Z,23.34
2017-09-29T04:56:39.316Z,23.37
2017-09-29T04:57:19.757Z,23.25
2017-09-29T04:58:00.210Z,23.32
2017-09-29T04:58:40.665Z,23.26
2017-09-29T04:59:21.126Z,23.39
2017-09-29T05:00:01.575Z,23.23
2017-09-29T05:00:42.036Z,23.39
2017-09-29T05:01:22.496Z,23.33
2017-09-29T05:02:02.938Z,23.29
2017-09-29T05:02:43.386Z,23.36
2017-09-29T05:03:23.835Z,23.32
2017-09-29T05:04:04.288Z,23.36
2017-09-29T05:04:44.745Z,23.36
2017-09-29T05:05:25.197Z,23.28
2017-09-29T05:06:05.657Z,23.32
2017-09-29T05:06:46.111Z,23.29
2017-09-29T05:07:26.568Z,23.23
2017-09-29T05:08:07.025Z,23.33
2017-09-29T05:08:47.480Z,23.33
2017-09-29T05:09:27.929Z,23.34
2017-09-29T05:10:08.377Z,23.29
2017-09-29T05:10:48.830Z,23.32
2017-09-29T05:11:29.285Z,23.33
2017-09-29T05:12:09.741Z,23.28
2017-09-29T05:12:50.203Z,23.23
2017-09-29T05:13:30.655Z,23.21
2017-09-29T05:14:11.108Z,23.2
2017-09-29T05:14:51.558Z,23.23
2017-09-29T05:15:32.016Z,23.25
2017-09-29T05:16:12.474Z,23.17
2017-09-29T05:16:52.933Z,23.13
2017-09-29T05:17:33.387Z,23.1
2017-09-29T05:18:13.852Z,23.16
2017-09-29T05:18:54.306Z,23.13
2017-09-29T05:19:34.760Z,23.17
2017-09-29T05:20:15.224Z,23.08
2017-09-29T05:20:55.670Z,23.16
2017-09-29T05:21:36.129Z,23.16
2017-09-29T05:22:16.582Z,23.21
2017-09-29T05:22:57.036Z,23.17
2017-09-29T05:23:37.499Z,23.23
2017-09-29T05:24:17.955Z,23.17
2017-09-29T05:24:58.408Z,23.13
2017-09-29T05:25:38.857Z,23.14
2017-09-29T05:26:19.320Z,23.13
2017-09-29T05:26:59.782Z,23.08
2017-09-29T05:27:40.235Z,23.11
2017-09-29T05:28:20.690Z,23.11
2017-09-29T05:29:01.153Z,23.11
2017-09-29T05:29:41.611Z,23.13
2017-09-29T05:30:22.058Z,23.07
2017-09-29T05:31:02.545Z,23.11
2017-09-29T05:31:42.963Z,23.1
2017-09-29T05:32:23.409Z,23.13
2017-09-29T05:33:03.872Z,23.07
2017-09-29T05:33:44.316Z,23.14
2017-09-29T05:34:24.776Z,23.1
2017-09-29T05:35:05.214Z,23.08
2017-09-29T05:35:45.666Z,23.14
2017-09-29T05:36:26.115Z,23.13
2017-09-29T05:37:06.568Z,23.08
2017-09-29T05:37:47.010Z,23.08
2017-09-29T05:38:27.436Z,23.11
2017-09-29T05:39:07.891Z,23.13
2017-09-29T05:39:48.354Z,23.07
2017-09-29T05:40:28.815Z,23.07
2017-09-29T05:41:09.252Z,23.07
2017-09-29T05:41:50.385Z,23.11
2017-09-29T05:42:30.836Z,23.08
2017-09-29T05:43:11.284Z,23.08
2017-09-29T05:43:51.738Z,22.98
2017-09-29T05:44:32.197Z,23.13
2017-09-29T05:45:12.652Z,23.14
2017-09-29T05:45:53.089Z,23.07
2017-09-29T05:46:33.552Z,23.11
2017-09-29T05:47:14.005Z,23.08
2017-09-29T05:47:54.468Z,23.14
2017-09-29T05:48:34.925Z,23.11
2017-09-29T05:49:15.381Z,23.13
2017-09-29T05:49:55.827Z,23.02
2017-09-29T05:50:36.280Z,23.02
2017-09-29T05:51:16.736Z,22.96
2017-09-29T05:51:57.193Z,23.02
2017-09-29T05:52:37.646Z,23.04
2017-09-29T05:53:18.109Z,22.96
2017-09-29T05:53:58.562Z,23.08
2017-09-29T05:54:39.018Z,23.08
2017-09-29T05:55:19.475Z,22.99
2017-09-29T05:55:59.933Z,22.99
2017-09-29T05:56:40.390Z,23.08
2017-09-29T05:57:20.844Z,23.1
2017-09-29T05:58:01.304Z,23.07
2017-09-29T05:58:41.763Z,23.06
2017-09-29T05:59:22.213Z,23.04
2017-09-29T06:00:02.674Z,23.06
2017-09-29T06:00:43.124Z,23.04
2017-09-29T06:01:23.580Z,23.06
2017-09-29T06:02:04.045Z,23.06
2017-09-29T06:02:44.502Z,23.08
2017-09-29T06:03:24.972Z,23.14
2017-09-29T06:04:05.426Z,23.01
2017-09-29T06:04:45.892Z,23.06
2017-09-29T06:05:26.348Z,23.08
2017-09-29T06:06:06.801Z,23.08
2017-09-29T06:06:47.255Z,23.07
2017-09-29T06:07:27.719Z,23.04
2017-09-29T06:08:08.179Z,23.1
2017-09-29T06:08:48.627Z,23.08
2017-09-29T06:09:29.084Z,23.11
2017-09-29T06:10:09.540Z,23.02
2017-09-29T06:10:49.996Z,23.07
2017-09-29T06:11:30.453Z,23.07
2017-09-29T06:12:10.908Z,23.07
2017-09-29T06:12:51.368Z,23.11
2017-09-29T06:13:31.824Z,23.04
2017-09-29T06:14:12.276Z,23.07
2017-09-29T06:14:52.731Z,23.02
2017-09-29T06:15:33.207Z,23.1
2017-09-29T06:16:13.669Z,23.07
2017-09-29T06:16:54.128Z,23.1
2017-09-29T06:17:34.584Z,23.1
2017-09-29T06:18:15.036Z,23.07
2017-09-29T06:18:55.491Z,23.14
2017-09-29T06:19:35.942Z,23.07
2017-09-29T06:20:16.401Z,23.08
2017-09-29T06:20:56.858Z,23.06
2017-09-29T06:21:37.314Z,22.98
2017-09-29T06:22:17.777Z,23.02
2017-09-29T06:22:58.240Z,23.02
2017-09-29T06:23:38.681Z,23.1
2017-09-29T06:24:19.144Z,23.07
2017-09-29T06:24:59.579Z,23.01
2017-09-29T06:25:40.046Z,23.01
2017-09-29T06:26:20.496Z,23.02
2017-09-29T06:27:00.953Z,22.98
2017-09-29T06:27:41.403Z,23.1
2017-09-29T06:28:21.862Z,23.08
2017-09-29T06:29:02.305Z,23.06
2017-09-29T06:29:42.763Z,23.02
2017-09-29T06:30:23.211Z,23.02
2017-09-29T06:31:03.665Z,23.06
2017-09-29T06:31:44.121Z,23.1
2017-09-29T06:32:24.583Z,23.01
2017-09-29T06:33:05.036Z,22.99
2017-09-29T06:33:45.502Z,23.04
2017-09-29T06:34:25.954Z,23.01
2017-09-29T06:35:06.408Z,22.99
2017-09-29T06:35:46.874Z,22.96
2017-09-29T06:36:27.325Z,23.02
2017-09-29T06:37:07.778Z,23.01
2017-09-29T06:37:48.242Z,23.01
2017-09-29T06:38:28.700Z,23.02
2017-09-29T06:39:09.152Z,22.99
2017-09-29T06:39:49.623Z,23.1
2017-09-29T06:40:30.089Z,23.01
2017-09-29T06:41:10.547Z,23.02
2017-09-29T06:41:50.999Z,23.01
2017-09-29T06:42:31.460Z,22.99
2017-09-29T06:43:11.913Z,23.01
2017-09-29T06:43:52.381Z,22.98
2017-09-29T06:44:32.850Z,23.02
2017-09-29T06:45:13.302Z,23.06
2017-09-29T06:45:53.755Z,23.06
2017-09-29T06:46:34.214Z,22.99
2017-09-29T06:47:14.664Z,23.01
2017-09-29T06:47:55.117Z,23.01
2017-09-29T06:48:35.564Z,23.01
2017-09-29T06:49:16.025Z,23.01
2017-09-29T06:49:56.483Z,22.99
2017-09-29T06:50:36.932Z,23.01
2017-09-29T06:51:17.536Z,23.01
2017-09-29T06:51:57.996Z,23.06
2017-09-29T06:52:38.453Z,23.06
2017-09-29T06:53:18.912Z,23.01
2017-09-29T06:53:59.364Z,23.01
2017-09-29T06:54:39.822Z,23.04
2017-09-29T06:55:20.279Z,23.04
2017-09-29T06:56:00.738Z,23.07
2017-09-29T06:56:41.196Z,23.07
2017-09-29T06:57:21.651Z,23.1
2017-09-29T06:58:02.106Z,22.99
2017-09-29T06:58:42.560Z,23.08
2017-09-29T06:59:23.023Z,23.04
2017-09-29T07:01:35.817Z,23.13
2017-09-29T07:02:16.264Z,23.11
2017-09-29T07:02:56.712Z,23.11
2017-09-29T07:03:37.166Z,23.11
2017-09-29T07:04:17.640Z,23.14
2017-09-29T07:04:58.086Z,23.1
2017-09-29T07:05:38.542Z,23.11
2017-09-29T07:06:18.990Z,23.1
2017-09-29T07:06:59.445Z,23.08
2017-09-29T07:07:39.897Z,23.1
2017-09-29T07:08:20.357Z,23.16
2017-09-29T07:09:00.808Z,23.13
2017-09-29T07:09:41.266Z,23.14
2017-09-29T07:10:21.722Z,23.13
2017-09-29T07:11:02.177Z,23.14
2017-09-29T07:11:42.628Z,23.16
2017-09-29T07:12:23.078Z,23.13
2017-09-29T07:13:03.874Z,23.18
2017-09-29T07:13:44.324Z,23.13
2017-09-29T07:14:24.778Z,23.11
2017-09-29T07:15:05.233Z,23.14
2017-09-29T07:15:45.679Z,23.17
2017-09-29T07:16:26.156Z,23.16
2017-09-29T07:17:06.599Z,23.17
2017-09-29T07:17:47.049Z,23.17
2017-09-29T07:18:27.503Z,23.18
2017-09-29T07:19:07.961Z,23.13
2017-09-29T07:19:48.431Z,23.18
2017-09-29T07:20:28.878Z,23.14
2017-09-29T07:21:09.332Z,23.14
2017-09-29T07:21:49.786Z,23.08
2017-09-29T07:22:30.246Z,23.17
2017-09-29T07:23:10.699Z,23.2
2017-09-29T07:23:51.151Z,23.18
2017-09-29T07:24:31.609Z,23.2
2017-09-29T07:25:12.068Z,23.18
2017-09-29T07:25:52.527Z,23.18
2017-09-29T07:26:32.980Z,23.11
2017-09-29T07:27:13.431Z,23.13
2017-09-29T07:27:53.885Z,23.14
2017-09-29T07:28:34.343Z,23.14
2017-09-29T07:29:14.779Z,23.18
2017-09-29T07:29:55.236Z,23.21
2017-09-29T07:30:35.687Z,23.1
2017-09-29T07:31:16.147Z,23.13
2017-09-29T07:31:56.600Z,23.13
2017-09-29T07:32:37.054Z,23.2
2017-09-29T07:33:17.511Z,23.17
2017-09-29T07:33:57.973Z,23.18
2017-09-29T07:34:38.427Z,23.14
2017-09-29T07:35:18.880Z,23.23
2017-09-29T07:35:59.329Z,23.13
2017-09-29T07:36:39.794Z,23.14
2017-09-29T07:37:20.261Z,23.13
2017-09-29T07:38:00.714Z,23.14
2017-09-29T07:38:41.176Z,23.17
2017-09-29T07:39:21.638Z,23.2
2017-09-29T07:40:02.087Z,23.13
2017-09-29T07:40:42.544Z,23.11
2017-09-29T07:41:23.005Z,23.16
2017-09-29T07:42:03.465Z,23.11
2017-09-29T07:42:43.921Z,23.16
2017-09-29T07:43:24.372Z,23.21
2017-09-29T07:44:04.843Z,23.18
2017-09-29T07:44:45.290Z,23.16
2017-09-29T07:45:25.880Z,23.07
2017-09-29T07:46:06.340Z,23.16
2017-09-29T07:46:46.796Z,23.16
2017-09-29T07:47:27.323Z,23.14
2017-09-29T07:48:07.772Z,23.13
2017-09-29T07:48:48.220Z,23.13
2017-09-29T07:49:28.681Z,23.17
2017-09-29T07:50:09.143Z,23.25
2017-09-29T07:50:49.604Z,23.14
2017-09-29T07:51:30.056Z,23.28
2017-09-29T07:52:10.506Z,23.21
2017-09-29T07:54:03.080Z,23.26
2017-09-29T07:54:43.535Z,23.21
2017-09-29T07:55:23.985Z,23.32
2017-09-29T07:56:04.524Z,23.36
2017-09-29T07:57:41.954Z,23.25
2017-09-29T07:58:22.384Z,23.34
2017-09-29T07:59:02.833Z,23.29
2017-09-29T07:59:43.279Z,23.33
2017-09-29T08:00:23.772Z,23.36
2017-09-29T08:01:04.216Z,23.28
2017-09-29T08:01:44.670Z,23.26
2017-09-29T08:02:25.119Z,23.39
2017-09-29T08:03:05.573Z,23.34
2017-09-29T08:03:46.026Z,23.29
2017-09-29T08:04:26.480Z,23.37
2017-09-29T08:05:06.933Z,23.45
2017-09-29T08:05:47.384Z,23.36
2017-09-29T08:06:27.836Z,23.36
2017-09-29T08:07:08.282Z,23.47
2017-09-29T08:07:48.737Z,23.37
2017-09-29T08:08:29.193Z,23.39
2017-09-29T08:09:09.650Z,23.44
2017-09-29T08:09:50.098Z,23.52
2017-09-29T08:10:30.582Z,23.58
2017-09-29T08:11:10.990Z,23.59
2017-09-29T08:11:51.440Z,23.55
2017-09-29T08:12:31.892Z,23.63
2017-09-29T08:13:12.333Z,23.66
2017-09-29T08:13:52.798Z,23.62
2017-09-29T08:14:33.423Z,23.71
2017-09-29T08:15:13.874Z,23.69
2017-09-29T08:15:54.495Z,23.71
2017-09-29T08:16:34.808Z,23.81
2017-09-29T08:17:15.275Z,23.71
2017-09-29T08:17:55.736Z,23.84
2017-09-29T08:18:36.183Z,23.85
2017-09-29T08:19:16.637Z,23.89
2017-09-29T08:19:57.078Z,23.94
2017-09-29T08:20:37.528Z,23.92
2017-09-29T08:21:17.989Z,23.92
2017-09-29T08:21:58.450Z,23.89
2017-09-29T08:22:38.900Z,23.94
2017-09-29T08:23:19.344Z,23.92
2017-09-29T08:23:59.798Z,23.92
2017-09-29T08:26:12.589Z,24.09
2017-09-29T08:26:53.046Z,24.07
2017-09-29T08:27:33.509Z,24.07
2017-09-29T08:28:13.981Z,24.18
2017-09-29T08:28:54.438Z,24.14
2017-09-29T08:29:34.893Z,24.19
2017-09-29T08:30:15.344Z,24.28
2017-09-29T08:30:55.795Z,24.28
2017-09-29T08:31:36.235Z,24.38
2017-09-29T08:32:16.689Z,24.4
2017-09-29T08:32:57.146Z,24.44
2017-09-29T08:33:37.588Z,24.41
2017-09-29T08:34:18.033Z,24.41
2017-09-29T08:34:58.480Z,24.5
2017-09-29T08:35:38.931Z,24.48
2017-09-29T08:36:19.389Z,24.58
2017-09-29T08:36:59.861Z,24.56
2017-09-29T08:37:40.300Z,24.59
2017-09-29T08:38:20.752Z,24.58
2017-09-29T08:39:01.199Z,24.46
2017-09-29T08:39:41.655Z,24.53
2017-09-29T08:40:22.108Z,24.5
2017-09-29T08:41:02.550Z,24.59
2017-09-29T08:41:43.001Z,24.61
2017-09-29T08:42:23.455Z,24.61
2017-09-29T08:43:03.911Z,24.65
2017-09-29T08:43:44.379Z,24.65
2017-09-29T08:44:24.826Z,24.68
2017-09-29T08:45:05.275Z,24.68
2017-09-29T08:45:45.728Z,24.79
2017-09-29T08:46:26.186Z,24.81
2017-09-29T08:47:06.641Z,24.85
2017-09-29T08:47:47.092Z,24.92
2017-09-29T08:48:27.548Z,24.82
2017-09-29T08:49:08.010Z,24.96
2017-09-29T08:50:55.564Z,25.01